Time;durP1;ratioP1;P1;durP2;ratioP2;P2;SDS_P1;SDS_P2;PMS_P1;PMS_P2;Temp;Humidity;BMP_temperature;BMP_pressure;BME280_temperature;BME280_humidity;BME280_pressure;Samples;Min_cycle;Max_cycle;Signal;HPM_P1;HPM_P2
2021/06/24 00:01:58;;;;;;;8.98;2.97;;;;;;;22.99;64.60;100520.00;5054613;28;20357;-79
2021/06/24 00:05:04;;;;;;;9.05;2.72;;;;;;;22.85;64.87;100512.84;5053378;28;20423;-80
2021/06/24 00:08:10;;;;;;;6.63;3.05;;;;;;;22.68;65.60;100506.94;5054358;28;20064;-79
2021/06/24 00:11:14;;;;;;;9.88;3.05;;;;;;;22.63;65.81;100512.19;5052886;28;20072;-78
2021/06/24 00:14:18;;;;;;;10.55;2.50;;;;;;;22.67;65.68;100503.34;5054198;28;20380;-78
2021/06/24 00:17:22;;;;;;;6.55;2.53;;;;;;;22.88;65.14;100518.75;5054121;28;20040;-80
2021/06/24 00:20:26;;;;;;;7.38;3.22;;;;;;;23.02;64.71;100503.16;5053245;28;20064;-79
2021/06/24 00:23:31;;;;;;;7.70;2.55;;;;;;;23.03;64.44;100502.09;5053964;28;20072;-79
2021/06/24 00:26:35;;;;;;;7.78;2.97;;;;;;;23.12;64.21;100503.56;5054229;28;20108;-80
2021/06/24 00:29:40;;;;;;;7.10;2.70;;;;;;;22.99;64.42;100509.03;5053172;28;20385;-80
2021/06/24 00:32:44;;;;;;;7.57;2.60;;;;;;;22.91;64.14;100499.13;5047749;28;20039;-79
2021/06/24 00:35:49;;;;;;;10.07;2.88;;;;;;;22.91;64.51;100514.75;5044238;28;20052;-79
2021/06/24 00:38:53;;;;;;;6.53;2.97;;;;;;;22.97;64.14;100514.75;5053859;28;20048;-78
2021/06/24 00:41:57;;;;;;;8.18;2.70;;;;;;;22.91;63.70;100512.00;5053853;28;20051;-81
2021/06/24 00:45:04;;;;;;;12.50;2.40;;;;;;;22.81;63.83;100511.59;5041054;28;20068;-78
2021/06/24 00:48:09;;;;;;;8.30;2.38;;;;;;;22.60;64.04;100505.22;5053011;28;20052;-80
2021/06/24 00:51:14;;;;;;;3.67;2.00;;;;;;;22.56;64.17;100501.22;5052951;28;20056;-80
2021/06/24 00:54:18;;;;;;;7.82;2.50;;;;;;;22.63;63.95;100501.25;5041522;28;20067;-80
2021/06/24 00:57:26;;;;;;;4.93;2.30;;;;;;;22.67;63.74;100500.63;5041713;28;20056;-79
2021/06/24 01:00:31;;;;;;;6.10;2.40;;;;;;;22.71;63.62;100492.84;5052634;28;20056;-79
2021/06/24 01:03:35;;;;;;;6.28;2.15;;;;;;;22.85;62.91;100490.94;5053507;28;20068;-81
2021/06/24 01:06:40;;;;;;;5.75;2.63;;;;;;;22.87;62.97;100484.19;5052099;28;20048;-80
2021/06/24 01:09:44;;;;;;;5.07;2.47;;;;;;;22.90;62.54;100482.94;5053505;28;20060;-80
2021/06/24 01:12:50;;;;;;;7.15;2.72;;;;;;;22.82;62.74;100488.63;5052459;28;20059;-80
2021/06/24 01:15:54;;;;;;;7.65;2.72;;;;;;;22.80;63.05;100480.63;5053618;28;20076;-80
2021/06/24 01:18:59;;;;;;;7.10;2.20;;;;;;;22.81;63.41;100478.75;5053503;28;20052;-79
2021/06/24 01:22:04;;;;;;;7.78;3.00;;;;;;;22.89;63.21;100482.09;5053441;28;20067;-80
2021/06/24 01:25:08;;;;;;;8.40;3.15;;;;;;;22.94;63.23;100478.72;5056583;28;20060;-80
2021/06/24 01:28:13;;;;;;;6.28;2.50;;;;;;;23.00;63.00;100483.34;5057450;28;20052;-80
2021/06/24 01:31:21;;;;;;;8.75;2.53;;;;;;;22.83;63.70;100485.69;5057679;28;20052;-79
2021/06/24 01:34:25;;;;;;;5.75;2.50;;;;;;;22.65;63.52;100490.94;5056406;28;20368;-80
2021/06/24 01:37:31;;;;;;;6.78;2.50;;;;;;;22.57;63.88;100477.41;5056312;28;20055;-80
2021/06/24 01:40:36;;;;;;;5.93;2.40;;;;;;;22.43;64.37;100479.31;5056092;28;20056;-80
2021/06/24 01:43:42;;;;;;;7.75;2.85;;;;;;;22.26;64.19;100475.28;5056909;28;20048;-80
2021/06/24 01:46:48;;;;;;;8.07;2.90;;;;;;;22.29;64.63;100479.50;5057058;28;20044;-79
2021/06/24 01:49:52;;;;;;;6.07;2.70;;;;;;;22.37;64.11;100474.66;5056979;28;20048;-80
2021/06/24 01:52:57;;;;;;;7.82;2.90;;;;;;;22.43;63.61;100468.38;5056078;28;20376;-79
2021/06/24 01:56:03;;;;;;;7.55;2.80;;;;;;;22.39;63.59;100477.22;5056211;28;20075;-80
2021/06/24 01:59:10;;;;;;;10.65;2.53;;;;;;;22.40;63.67;100473.41;5044507;28;20060;-79
2021/06/24 02:02:30;;;;;;;7.63;2.80;;;;;;;22.17;63.76;100457.38;5055873;28;20068;-80
2021/06/24 02:05:35;;;;;;;7.18;2.60;;;;;;;22.11;63.80;100460.09;5056582;28;20479;-80
2021/06/24 02:08:39;;;;;;;5.93;2.40;;;;;;;22.09;64.14;100459.47;5056680;28;20392;-80
2021/06/24 02:11:57;;;;;;;10.43;2.78;;;;;;;21.92;64.40;100454.34;5056227;28;20056;-81
2021/06/24 02:15:10;;;;;;;9.70;3.03;;;;;;;21.94;64.32;100460.47;5056150;28;20064;-80
2021/06/24 02:18:14;;;;;;;7.35;2.90;;;;;;;21.91;64.70;100458.16;5056370;28;20048;-80
2021/06/24 02:21:23;;;;;;;10.18;3.10;;;;;;;21.82;64.34;100463.97;5056329;28;20499;-79
2021/06/24 02:24:36;;;;;;;;;;;;;;;21.76;64.82;100467.50;5055859;28;20056;-79
2021/06/24 02:27:42;;;;;;;5.43;3.03;;;;;;;21.70;64.88;100460.97;5055519;28;19924;-80
2021/06/24 02:31:19;;;;;;;7.25;3.35;;;;;;;21.63;65.15;100457.38;5049131;28;20064;-80
2021/06/24 02:34:27;;;;;;;7.43;2.90;;;;;;;21.64;65.13;100467.25;5055184;28;20048;-79
2021/06/24 02:37:38;;;;;;;10.05;2.88;;;;;;;21.69;64.93;100459.31;5054661;28;20048;-80
2021/06/24 02:41:15;;;;;;;8.80;2.58;;;;;;;21.73;65.02;100465.19;5056027;28;20052;-80
2021/06/24 02:44:21;;;;;;;7.25;2.75;;;;;;;21.70;64.38;100466.44;5055816;28;20071;-80
2021/06/24 02:47:26;;;;;;;7.40;2.65;;;;;;;21.51;64.97;100471.81;5055065;28;20047;-76
2021/06/24 02:50:32;;;;;;;6.72;2.67;;;;;;;21.53;65.15;100475.19;5055021;28;20123;-80
2021/06/24 02:53:46;;;;;;;;;;;;;;;21.38;65.12;100470.69;5055354;28;20068;-81
2021/06/24 02:56:52;;;;;;;9.20;2.70;;;;;;;21.24;65.29;100459.91;5055644;28;19916;-79
2021/06/24 03:00:15;;;;;;;7.93;3.05;;;;;;;21.21;65.46;100468.47;5055650;28;20051;-80
2021/06/24 03:03:24;;;;;;;10.43;2.88;;;;;;;21.13;65.26;100464.03;5054332;28;20056;-79
2021/06/24 03:06:53;;;;;;;7.47;2.60;;;;;;;21.26;65.06;100469.56;5062226;28;20047;-81
2021/06/24 03:09:57;;;;;;;9.07;2.22;;;;;;;21.36;64.64;100469.22;5055392;28;20056;-80
2021/06/24 03:13:01;;;;;;;9.30;2.90;;;;;;;21.38;64.39;100462.50;5052642;28;20535;-81
2021/06/24 03:16:06;;;;;;;6.63;3.10;;;;;;;21.42;63.98;100473.03;5054541;28;20051;-80
2021/06/24 03:19:11;;;;;;;8.05;3.63;;;;;;;21.29;64.21;100462.88;5054993;28;20494;-80
2021/06/24 03:22:24;;;;;;;5.70;2.45;;;;;;;21.31;63.88;100472.53;5054339;28;20052;-80
2021/06/24 03:25:29;;;;;;;6.57;2.40;;;;;;;21.27;63.98;100478.63;5054214;28;20056;-79
2021/06/24 03:28:34;;;;;;;10.23;2.67;;;;;;;21.19;63.64;100482.34;5055098;28;20048;-79
2021/06/24 03:31:54;;;;;;;8.82;3.30;;;;;;;21.24;63.76;100471.66;5054855;28;20048;-80
2021/06/24 03:35:07;;;;;;;6.93;2.72;;;;;;;21.30;63.88;100467.31;5054254;28;20048;-81
2021/06/24 03:38:13;;;;;;;13.50;2.30;;;;;;;21.31;63.34;100458.91;5054236;28;20052;-79
2021/06/24 03:41:24;;;;;;;8.20;2.80;;;;;;;21.13;63.65;100474.94;5055290;28;20408;-80
2021/06/24 03:44:29;;;;;;;5.30;2.08;;;;;;;20.92;64.20;100461.34;5054102;28;20392;-79
2021/06/24 03:47:34;;;;;;;9.15;2.80;;;;;;;20.87;64.74;100466.53;5054377;28;20044;-80
2021/06/24 03:50:39;;;;;;;10.95;2.42;;;;;;;20.92;64.91;100466.78;5054882;28;20490;-80
2021/06/24 03:53:44;;;;;;;9.27;2.65;;;;;;;20.92;64.62;100476.84;5054008;28;20048;-81
2021/06/24 03:56:50;;;;;;;9.15;2.70;;;;;;;20.87;64.39;100473.88;5054958;28;20127;-79
2021/06/24 03:59:56;;;;;;;8.43;2.25;;;;;;;20.86;64.83;100473.06;5053863;28;20372;-81
2021/06/24 04:03:01;;;;;;;8.10;2.47;;;;;;;20.89;64.47;100460.88;5054536;28;20491;-79
2021/06/24 04:06:14;;;;;;;5.25;2.15;;;;;;;21.06;63.65;100459.59;5052091;28;20052;-80
2021/06/24 04:09:19;;;;;;;5.63;2.45;;;;;;;21.16;63.60;100463.63;5053701;28;20052;-80
2021/06/24 04:12:24;;;;;;;5.78;2.58;;;;;;;21.35;62.53;100460.19;5053606;28;20047;-80
2021/06/24 04:15:41;;;;;;;10.07;2.60;;;;;;;21.51;62.13;100460.88;5053603;28;20384;-81
2021/06/24 04:18:46;;;;;;;13.93;3.22;;;;;;;21.79;61.89;100469.84;5053612;28;20052;-79
2021/06/24 04:21:50;;;;;;;8.48;2.95;;;;;;;22.01;61.11;100472.28;5053489;28;20056;-79
2021/06/24 04:24:55;;;;;;;14.05;2.80;;;;;;;22.20;60.54;100481.56;5053643;28;20060;-80
2021/06/24 04:28:00;;;;;;;12.93;2.72;;;;;;;22.44;59.68;100480.16;5054260;28;20051;-79
2021/06/24 04:31:07;;;;;;;14.60;3.33;;;;;;;22.52;58.99;100471.72;5053479;28;20495;-80
2021/06/24 04:34:11;;;;;;;12.30;2.70;;;;;;;22.60;58.95;100474.28;5054254;28;20503;-79
2021/06/24 04:37:35;;;;;;;11.35;3.47;;;;;;;22.87;57.75;100476.00;5053195;28;20052;-79
2021/06/24 04:40:40;;;;;;;11.75;2.65;;;;;;;23.27;56.78;100482.28;5045921;28;20064;-79
2021/06/24 04:43:44;;;;;;;8.50;2.50;;;;;;;23.69;55.44;100478.16;5053886;28;20064;-79
2021/06/24 04:46:49;;;;;;;10.27;2.28;;;;;;;23.92;54.60;100479.31;5053121;28;20060;-79
2021/06/24 04:49:53;;;;;;;13.23;2.38;;;;;;;24.43;53.27;100476.53;5053897;28;20053;-80
2021/06/24 04:53:15;;;;;;;12.32;2.38;;;;;;;24.76;52.61;100484.53;5053067;28;20495;-79
2021/06/24 04:56:41;;;;;;;13.27;2.63;;;;;;;25.51;50.29;100485.34;5053921;28;20520;-79
2021/06/24 04:59:46;;;;;;;14.27;2.88;;;;;;;26.36;49.14;100482.38;5053865;28;20048;-80
2021/06/24 05:03:10;;;;;;;10.70;2.38;;;;;;;26.90;47.03;100481.31;5053791;28;20052;-80
2021/06/24 05:06:23;;;;;;;28.92;21.52;;;;;;;27.65;45.53;100484.22;5054001;28;20495;-78
2021/06/24 05:09:31;;;;;;;44.20;32.38;;;;;;;27.95;44.61;100489.53;5053695;28;20045;-78
2021/06/24 05:12:36;;;;;;;12.48;7.97;;;;;;;28.73;42.72;100484.19;5053528;28;20037;-80
2021/06/24 05:15:44;;;;;;;7.82;1.73;;;;;;;28.70;42.42;100495.72;5052829;28;20099;-78
2021/06/24 05:18:51;;;;;;;5.95;2.47;;;;;;;29.64;41.04;100500.28;5051845;28;20052;-78
2021/06/24 05:21:57;;;;;;;7.15;2.10;;;;;;;30.86;38.70;100495.09;5052523;28;20064;-79
2021/06/24 05:25:05;;;;;;;5.05;1.63;;;;;;;31.64;37.43;100491.53;5052379;28;20511;-79
2021/06/24 05:28:09;;;;;;;3.65;1.52;;;;;;;32.96;35.98;100492.78;5052957;28;20393;-80
2021/06/24 05:31:15;;;;;;;10.85;2.30;;;;;;;34.55;33.58;100503.78;5053590;28;20482;-80
2021/06/24 05:34:19;;;;;;;8.45;2.03;;;;;;;35.70;31.80;100505.91;5014113;28;20049;-80
2021/06/24 05:37:23;;;;;;;6.32;2.08;;;;;;;36.86;29.25;100502.34;5013858;28;20053;-80
2021/06/24 05:40:27;;;;;;;8.35;2.08;;;;;;;38.15;27.19;100498.56;5013057;28;20049;-80
2021/06/24 05:43:31;;;;;;;5.90;1.83;;;;;;;38.92;26.87;100502.97;5013013;28;20057;-81
2021/06/24 05:46:36;;;;;;;8.80;1.67;;;;;;;39.53;25.68;100507.84;5013935;28;20057;-80
2021/06/24 05:49:40;;;;;;;9.32;1.77;;;;;;;40.54;24.73;100509.72;5001191;28;20073;-78
2021/06/24 05:52:45;;;;;;;7.10;2.10;;;;;;;40.04;25.13;100515.72;5012716;28;20053;-79
2021/06/24 05:55:51;;;;;;;9.00;1.95;;;;;;;40.71;23.98;100516.19;5013246;28;20049;-81
2021/06/24 05:58:56;;;;;;;8.35;1.88;;;;;;;41.70;23.05;100512.28;5012348;28;20053;-80
2021/06/24 06:02:01;;;;;;;10.70;2.38;;;;;;;43.11;21.42;100511.50;5012229;28;20045;-80
2021/06/24 06:05:05;;;;;;;4.50;1.83;;;;;;;43.63;21.21;100509.75;5008816;28;20053;-80
2021/06/24 06:08:10;;;;;;;5.28;1.63;;;;;;;44.35;20.53;100517.47;5001969;28;20050;-84
2021/06/24 06:11:14;;;;;;;9.80;1.70;;;;;;;45.17;19.43;100521.63;5015004;28;20048;-79
2021/06/24 06:14:19;;;;;;;12.93;1.67;;;;;;;46.09;18.84;100518.47;5012873;28;20053;-80
2021/06/24 06:17:23;;;;;;;7.32;1.60;;;;;;;45.21;19.38;100524.56;5014243;28;20065;-81
2021/06/24 06:20:28;;;;;;;8.10;1.80;;;;;;;46.00;18.91;100525.53;5009976;28;20069;-79
2021/06/24 06:23:33;;;;;;;3.45;1.30;;;;;;;47.18;18.37;100520.16;5002900;28;20057;-79
2021/06/24 06:26:37;;;;;;;4.05;1.40;;;;;;;47.35;17.76;100533.06;5010812;28;20045;-80
2021/06/24 06:29:41;;;;;;;7.00;2.08;;;;;;;47.60;18.06;100542.91;5023528;28;20057;-80
2021/06/24 06:32:46;;;;;;;4.85;1.98;;;;;;;48.59;17.31;100545.44;5029711;28;20063;-80
2021/06/24 06:35:51;;;;;;;10.30;1.95;;;;;;;48.65;17.14;100538.19;5051991;28;20052;-81
2021/06/24 06:38:56;;;;;;;7.72;1.80;;;;;;;48.25;16.96;100541.63;5050467;28;20095;-81
2021/06/24 06:42:00;;;;;;;11.20;2.03;;;;;;;48.23;17.22;100531.81;5052148;28;20048;-81
2021/06/24 06:45:06;;;;;;;8.25;2.10;;;;;;;49.06;16.94;100539.16;5044069;28;20068;-83
2021/06/24 06:48:10;;;;;;;7.57;1.77;;;;;;;48.83;16.65;100544.94;5051481;28;20044;-84
2021/06/24 06:51:15;;;;;;;13.57;2.00;;;;;;;46.18;18.25;100544.63;5055306;28;20068;-83
2021/06/24 06:54:19;;;;;;;6.00;1.90;;;;;;;47.46;17.41;100545.47;5055578;28;20056;-83
2021/06/24 06:57:23;;;;;;;10.38;2.05;;;;;;;45.69;18.98;100560.38;5047119;28;20044;-83
2021/06/24 07:00:30;;;;;;;7.35;2.13;;;;;;;44.60;19.46;100553.09;5043948;28;20048;-82
2021/06/24 07:03:34;;;;;;;6.00;1.98;;;;;;;44.52;19.99;100553.22;5052570;28;20503;-83
2021/06/24 07:06:38;;;;;;;7.35;2.05;;;;;;;45.39;18.18;100550.59;5052346;28;20056;-84
2021/06/24 07:09:44;;;;;;;6.28;1.88;;;;;;;47.88;16.97;100540.59;5051868;28;20056;-83
2021/06/24 07:12:49;;;;;;;6.20;1.98;;;;;;;48.17;16.72;100539.88;5054363;28;20051;-82
2021/06/24 07:15:56;;;;;;;8.90;1.77;;;;;;;50.72;14.88;100537.81;5055464;28;20060;-84
2021/06/24 07:19:01;;;;;;;6.40;2.03;;;;;;;47.48;16.34;100545.94;5054327;28;20051;-86
2021/06/24 07:22:06;;;;;;;6.20;1.92;;;;;;;48.37;16.51;100537.75;5054648;28;20507;-86
2021/06/24 07:25:17;;;;;;;8.73;2.38;;;;;;;49.59;15.46;100536.09;5055132;28;20052;-85
2021/06/24 07:28:22;;;;;;;7.15;2.08;;;;;;;48.12;16.58;100536.50;5054439;28;20051;-87
2021/06/24 07:31:27;;;;;;;7.65;2.00;;;;;;;51.20;14.80;100530.69;5048813;28;20048;-85
2021/06/24 07:34:31;;;;;;;8.93;2.22;;;;;;;51.49;14.52;100542.22;5052877;28;20048;-83
2021/06/24 07:37:36;;;;;;;10.90;2.20;;;;;;;49.48;16.14;100544.53;5054684;28;20048;-84
2021/06/24 07:40:41;;;;;;;5.63;1.90;;;;;;;49.84;15.62;100542.84;5034737;28;20511;-85
2021/06/24 07:43:45;;;;;;;4.78;2.10;;;;;;;50.61;15.27;100543.50;5043363;28;20056;-84
2021/06/24 07:46:50;;;;;;;8.65;1.90;;;;;;;51.62;14.31;100550.03;5054599;28;20052;-84
2021/06/24 07:49:54;;;;;;;7.75;2.30;;;;;;;49.78;15.86;100539.53;5053253;28;20064;-85
2021/06/24 07:53:00;;;;;;;9.48;1.75;;;;;;;51.01;14.81;100542.50;5053786;28;20055;-85
2021/06/24 07:56:07;;;;;;;9.15;2.17;;;;;;;48.98;16.32;100542.28;5053645;28;20400;-83
2021/06/24 07:59:13;;;;;;;7.18;2.15;;;;;;;48.86;16.30;100537.69;5053721;28;20056;-86
2021/06/24 08:02:17;;;;;;;6.50;1.85;;;;;;;48.07;16.75;100528.28;5052955;28;20044;-85
2021/06/24 08:05:22;;;;;;;8.75;2.17;;;;;;;48.06;16.39;100529.50;5054229;28;20520;-85
2021/06/24 08:08:27;;;;;;;7.38;2.17;;;;;;;48.96;16.21;100533.31;5051339;28;20047;-83
2021/06/24 08:11:31;;;;;;;4.78;1.83;;;;;;;47.50;16.92;100532.16;5052997;28;20495;-86
2021/06/24 08:14:36;;;;;;;10.50;1.60;;;;;;;45.47;18.46;100535.44;5048527;28;20091;-86
2021/06/24 08:17:41;;;;;;;5.75;2.03;;;;;;;42.00;21.25;100525.22;5053106;28;20052;-84
2021/06/24 08:20:47;;;;;;;4.72;2.10;;;;;;;40.17;23.36;100528.00;5045101;28;20048;-85
2021/06/24 08:23:52;;;;;;;6.53;2.15;;;;;;;38.46;24.36;100521.19;5051609;28;20055;-87
2021/06/24 08:26:57;;;;;;;8.73;1.70;;;;;;;38.12;25.43;100518.84;5053280;28;20056;-82
2021/06/24 08:30:10;;;;;;;7.10;1.98;;;;;;;36.88;26.74;100521.66;5053054;28;20056;-81
2021/06/24 08:33:15;;;;;;;15.43;2.72;;;;;;;35.98;28.33;100527.34;5028982;28;20119;-85
2021/06/24 08:36:20;;;;;;;14.30;2.60;;;;;;;35.37;29.64;100523.50;5052808;28;20052;-82
2021/06/24 08:39:24;;;;;;;13.52;3.13;;;;;;;34.60;31.08;100517.69;5051634;28;20507;-81
2021/06/24 08:42:30;;;;;;;16.60;2.67;;;;;;;33.61;32.40;100517.81;5047200;28;20048;-84
2021/06/24 08:45:38;;;;;;;16.05;2.35;;;;;;;34.03;31.45;100526.59;5051319;28;20059;-85
2021/06/24 08:48:43;;;;;;;15.95;2.92;;;;;;;34.10;32.19;100529.09;5046818;28;20051;-85
2021/06/24 08:51:47;;;;;;;17.95;3.42;;;;;;;33.17;33.26;100530.66;5051087;28;20048;-84
2021/06/24 08:54:52;;;;;;;12.50;2.88;;;;;;;33.23;32.87;100526.75;5049875;28;20064;-83
2021/06/24 08:57:56;;;;;;;13.30;2.03;;;;;;;33.10;32.82;100533.72;5052415;28;20052;-84
2021/06/24 09:01:01;;;;;;;13.10;2.60;;;;;;;33.23;33.09;100524.78;5052485;28;20068;-81
2021/06/24 09:04:17;;;;;;;10.80;2.60;;;;;;;33.07;32.93;100523.13;5052129;28;20048;-84
2021/06/24 09:07:21;;;;;;;15.48;3.33;;;;;;;33.14;33.06;100529.25;5053025;28;20518;-85
2021/06/24 09:10:26;;;;;;;14.48;2.50;;;;;;;32.88;33.08;100516.44;5053561;28;20068;-84
2021/06/24 09:13:30;;;;;;;9.40;2.55;;;;;;;33.05;32.58;100524.53;5051936;28;20515;-84
2021/06/24 09:16:41;;;;;;;11.48;2.92;;;;;;;32.72;34.07;100525.84;5053277;28;20052;-86
2021/06/24 09:19:45;;;;;;;6.85;2.55;;;;;;;32.69;34.92;100531.97;5047692;28;20052;-85
2021/06/24 09:23:10;;;;;;;8.98;2.33;;;;;;;33.24;34.03;100539.53;5051534;28;20052;-85
2021/06/24 09:26:14;;;;;;;9.77;2.70;;;;;;;33.74;32.63;100539.50;5052488;28;20511;-86
2021/06/24 09:29:20;;;;;;;7.15;2.38;;;;;;;33.77;32.33;100533.38;5052535;28;20052;-85
2021/06/24 09:32:37;;;;;;;5.70;2.22;;;;;;;33.78;31.78;100529.44;5053007;28;20400;-85
2021/06/24 09:35:56;;;;;;;5.93;2.22;;;;;;;33.87;31.84;100529.72;5052707;28;20403;-85
2021/06/24 09:39:01;;;;;;;8.55;2.80;;;;;;;34.01;32.47;100526.03;5052069;28;20078;-85
2021/06/24 09:42:13;;;;;;;7.43;3.05;;;;;;;33.64;33.10;100522.81;5049846;28;20047;-86
2021/06/24 09:45:17;;;;;;;9.77;2.67;;;;;;;33.11;32.81;100517.88;5053116;28;20048;-86
2021/06/24 09:48:32;;;;;;;9.35;2.80;;;;;;;32.99;33.32;100520.03;5043579;28;20052;-85
2021/06/24 09:51:37;;;;;;;7.68;3.28;;;;;;;32.78;33.25;100519.22;5056396;28;20052;-85
2021/06/24 09:54:46;;;;;;;10.43;3.42;;;;;;;32.70;33.96;100519.75;5050226;28;20527;-84
2021/06/24 09:57:51;;;;;;;6.75;3.22;;;;;;;32.60;34.99;100523.34;5054968;28;20052;-85
2021/06/24 10:00:55;;;;;;;8.27;4.03;;;;;;;32.83;35.46;100524.78;5055481;28;20442;-84
2021/06/24 10:04:01;;;;;;;8.00;2.38;;;;;;;32.43;33.77;100531.06;5055627;28;20067;-85
2021/06/24 10:07:09;;;;;;;10.48;2.83;;;;;;;32.48;33.85;100533.84;5035362;28;20052;-84
2021/06/24 10:10:14;;;;;;;9.50;2.95;;;;;;;32.65;33.91;100530.84;5055160;28;20052;-84
2021/06/24 10:13:18;;;;;;;11.68;3.00;;;;;;;32.62;33.39;100534.19;5054287;28;21067;-86
2021/06/24 10:16:27;;;;;;;9.77;3.40;;;;;;;32.69;34.53;100532.81;5051709;28;20059;-85
2021/06/24 10:19:43;;;;;;;11.50;3.08;;;;;;;32.26;35.20;100536.00;5055051;28;20056;-84
2021/06/24 10:22:56;;;;;;;6.57;2.90;;;;;;;32.39;34.67;100527.16;5055122;28;20039;-84
2021/06/24 10:26:02;;;;;;;8.32;3.35;;;;;;;32.44;35.20;100524.38;5056063;28;20048;-84
2021/06/24 10:29:16;;;;;;;10.25;2.92;;;;;;;32.27;34.91;100522.97;5054849;28;20052;-84
2021/06/24 10:32:33;;;;;;;11.65;2.85;;;;;;;32.40;35.34;100517.72;5034996;28;20397;-85
2021/06/24 10:35:40;;;;;;;8.32;2.65;;;;;;;32.69;35.70;100516.13;5055596;28;20052;-85
2021/06/24 10:38:47;;;;;;;13.25;2.75;;;;;;;32.85;35.31;100516.97;5041869;28;20052;-85
2021/06/24 10:42:04;;;;;;;8.95;2.40;;;;;;;32.91;34.95;100510.31;5055557;28;20056;-84
2021/06/24 10:45:16;;;;;;;6.90;2.30;;;;;;;33.13;34.25;100510.06;5054817;28;20048;-85
2021/06/24 10:48:29;;;;;;;9.75;2.20;;;;;;;33.16;32.52;100509.53;5053634;28;20403;-84
2021/06/24 10:51:35;;;;;;;7.15;2.20;;;;;;;33.17;33.33;100503.66;5055314;28;20590;-84
2021/06/24 10:54:42;;;;;;;6.22;2.25;;;;;;;33.18;33.63;100498.94;5053198;28;20044;-84
2021/06/24 10:57:47;;;;;;;6.57;2.20;;;;;;;33.17;33.01;100505.59;5055107;28;20399;-85
2021/06/24 11:00:56;;;;;;;9.82;1.95;;;;;;;33.20;32.54;100503.09;5054748;28;20060;-85
2021/06/24 11:04:01;;;;;;;8.88;2.20;;;;;;;33.21;32.70;100488.06;5054547;28;20044;-85
2021/06/24 11:07:33;;;;;;;7.18;1.83;;;;;;;32.89;32.52;100487.50;5055304;28;20071;-85
2021/06/24 11:10:58;;;;;;;8.13;1.70;;;;;;;33.06;31.59;100484.47;5055394;28;20052;-85
2021/06/24 11:14:03;;;;;;;6.28;1.52;;;;;;;33.25;33.26;100477.22;5054784;28;20052;-85
2021/06/24 11:17:43;;;;;;;5.40;1.65;;;;;;;33.31;32.67;100492.78;5054294;28;20052;-84
2021/06/24 11:20:48;;;;;;;7.28;1.55;;;;;;;33.30;31.88;100493.91;5054582;28;20503;-84
2021/06/24 11:23:59;;;;;;;6.45;1.60;;;;;;;33.23;31.47;100485.81;5053602;28;20531;-84
2021/06/24 11:27:20;;;;;;;7.15;1.80;;;;;;;33.04;31.83;100465.25;5054340;28;20060;-83
2021/06/24 11:31:05;;;;;;;9.38;1.60;;;;;;;32.82;30.92;100474.97;5051937;28;20044;-84
2021/06/24 11:37:27;;;;;;;7.93;1.67;;;;;;;33.03;29.99;100473.91;5052709;28;20051;-83
2021/06/24 11:40:32;;;;;;;3.50;1.42;;;;;;;32.89;28.12;100479.16;5052132;28;20048;-83
2021/06/24 11:43:39;;;;;;;3.90;0.88;;;;;;;32.92;23.42;100477.75;5052433;28;20495;-83
2021/06/24 11:46:54;;;;;;;5.35;0.75;;;;;;;33.07;24.86;100481.41;5051762;28;20075;-83
2021/06/24 12:00:44;;;;;;;3.08;1.00;;;;;;;33.46;24.39;100461.28;5042589;28;19917;-82
2021/06/24 12:03:49;;;;;;;5.25;1.20;;;;;;;33.25;23.47;100458.56;5053953;28;20468;-82
2021/06/24 12:06:56;;;;;;;5.80;1.20;;;;;;;33.34;24.26;100456.03;5054595;28;20068;-82
2021/06/24 12:10:05;;;;;;;3.88;1.00;;;;;;;33.40;24.11;100454.91;5052738;28;20052;-81
2021/06/24 12:13:11;;;;;;;4.55;0.95;;;;;;;33.50;23.97;100454.91;5041911;28;20048;-82
2021/06/24 12:16:15;;;;;;;6.18;0.80;;;;;;;33.41;23.31;100451.00;5034830;28;20068;-81
2021/06/24 12:19:20;;;;;;;5.80;0.88;;;;;;;33.31;23.79;100446.31;5039262;28;20045;-80
2021/06/24 12:22:44;;;;;;;7.25;1.02;;;;;;;33.30;24.20;100454.94;5044751;28;20048;-79
2021/06/24 12:25:49;;;;;;;4.90;0.90;;;;;;;33.24;24.79;100442.97;5027854;28;20053;-80
2021/06/24 12:29:02;;;;;;;5.10;1.10;;;;;;;33.14;24.48;100444.94;5040994;28;20048;-84
2021/06/24 12:32:07;;;;;;;6.85;1.17;;;;;;;33.07;24.79;100430.50;5050710;28;20067;-84
2021/06/24 12:35:12;;;;;;;3.20;1.00;;;;;;;33.20;23.89;100429.91;5053815;28;20056;-83
2021/06/24 12:38:26;;;;;;;8.70;0.93;;;;;;;33.31;24.72;100426.81;5052032;28;20479;-81
2021/06/24 12:41:31;;;;;;;8.85;1.40;;;;;;;33.37;24.40;100433.22;5033100;28;20057;-86
2021/06/24 12:44:38;;;;;;;8.68;1.13;;;;;;;33.39;23.94;100422.63;5033796;28;20112;-85
2021/06/24 12:47:44;;;;;;;4.30;1.00;;;;;;;33.36;23.56;100420.41;5041029;28;20048;-86
2021/06/24 12:50:49;;;;;;;3.25;1.15;;;;;;;33.37;23.67;100399.81;5050220;28;20068;-84
2021/06/24 12:53:54;;;;;;;3.75;0.77;;;;;;;33.22;23.32;100411.81;5071956;28;20048;-78
2021/06/24 12:56:59;;;;;;;5.65;1.10;;;;;;;33.09;23.96;100409.63;5053052;28;20064;-85
2021/06/24 13:00:04;;;;;;;2.88;0.85;;;;;;;33.17;24.12;100397.09;5047149;28;20048;-86
2021/06/24 13:03:09;;;;;;;9.38;1.00;;;;;;;33.23;24.24;100388.44;5045641;28;20048;-82
2021/06/24 13:06:26;;;;;;;5.63;1.02;;;;;;;33.12;25.05;100395.16;5053374;28;20052;-85
2021/06/24 13:09:38;;;;;;;4.22;1.00;;;;;;;33.25;24.80;100393.72;5033381;28;20048;-85
2021/06/24 13:12:48;;;;;;;6.43;0.93;;;;;;;33.05;24.35;100396.56;5063282;28;20056;-83
2021/06/24 13:15:53;;;;;;;5.82;1.50;;;;;;;33.01;24.08;100385.13;5053166;28;20051;-82
2021/06/24 13:19:00;;;;;;;4.03;1.02;;;;;;;32.76;23.38;100383.19;5053865;28;20056;-83
2021/06/24 13:22:09;;;;;;;4.57;0.98;;;;;;;32.99;24.17;100383.72;5055040;28;20064;-83
2021/06/24 13:25:21;;;;;;;5.53;0.70;;;;;;;33.08;24.50;100388.50;5057313;28;20051;-79
2021/06/24 13:28:26;;;;;;;8.70;1.20;;;;;;;33.12;23.87;100385.97;5056420;28;20137;-83
2021/06/24 13:31:34;;;;;;;7.68;1.10;;;;;;;33.19;23.89;100379.00;5056188;28;20044;-82
2021/06/24 13:34:40;;;;;;;2.42;0.75;;;;;;;33.18;24.48;100374.53;5037595;28;20381;-82
2021/06/24 13:37:54;;;;;;;6.22;1.10;;;;;;;33.09;23.75;100384.56;5043316;28;20056;-84
2021/06/24 13:41:00;;;;;;;4.60;1.23;;;;;;;33.10;23.79;100377.91;5056757;28;20068;-81
2021/06/24 13:44:20;;;;;;;4.05;1.00;;;;;;;33.16;23.31;100375.97;5056062;28;20052;-83
2021/06/24 13:47:25;;;;;;;3.42;0.93;;;;;;;33.25;23.54;100368.69;5056112;28;20128;-83
2021/06/24 13:50:30;;;;;;;4.93;1.23;;;;;;;33.22;23.79;100374.81;5056942;28;20056;-82
2021/06/24 13:53:35;;;;;;;6.22;1.00;;;;;;;33.18;23.96;100373.72;5055636;28;20056;-84
2021/06/24 13:56:40;;;;;;;9.00;1.08;;;;;;;33.01;24.13;100368.41;5056533;28;20063;-79
2021/06/24 13:59:45;;;;;;;6.25;0.88;;;;;;;33.02;23.97;100360.91;5052106;28;20515;-86
2021/06/24 14:02:50;;;;;;;4.43;0.68;;;;;;;33.06;24.83;100362.06;5055852;28;20044;-82
2021/06/24 14:05:55;;;;;;;2.47;0.70;;;;;;;33.07;23.68;100367.34;5055484;28;20055;-79
2021/06/24 14:09:01;;;;;;;6.65;1.08;;;;;;;32.93;22.57;100355.09;5055818;28;20048;-87
2021/06/24 14:12:06;;;;;;;3.15;0.90;;;;;;;32.83;23.67;100354.28;5055301;28;20119;-86
2021/06/24 14:15:11;;;;;;;3.75;0.80;;;;;;;32.76;23.49;100355.41;5056299;28;20064;-86
2021/06/24 14:18:15;;;;;;;3.63;0.80;;;;;;;32.64;21.65;100357.63;5055730;28;20416;-86
2021/06/24 14:21:21;;;;;;;3.10;0.70;;;;;;;32.44;22.23;100346.50;5056653;28;20060;-86
2021/06/24 14:24:26;;;;;;;5.05;0.90;;;;;;;32.39;23.23;100351.25;5056306;28;20435;-86
2021/06/24 14:27:30;;;;;;;2.92;0.80;;;;;;;32.43;23.04;100355.97;5054573;28;20072;-84
2021/06/24 14:30:35;;;;;;;4.97;0.95;;;;;;;32.50;22.72;100350.94;5054468;28;20044;-87
2021/06/24 14:33:40;;;;;;;5.50;0.80;;;;;;;32.27;23.10;100354.28;5055010;28;20048;-86
2021/06/24 14:36:44;;;;;;;2.58;0.90;;;;;;;32.31;24.81;100355.41;5056112;28;20048;-86
2021/06/24 14:39:50;;;;;;;8.35;1.38;;;;;;;32.47;24.15;100345.94;5055815;28;20396;-85
2021/06/24 14:42:55;;;;;;;2.45;0.80;;;;;;;32.39;23.01;100346.53;5055418;28;20396;-85
2021/06/24 14:46:04;;;;;;;3.85;0.80;;;;;;;32.33;24.04;100339.28;5055400;28;20044;-82